createdAt,value
2023-08-07T20:00:51.755Z,98206.67
2023-08-07T20:03:23.612Z,98206.73
2023-08-07T20:05:56.217Z,98214.90
2023-08-07T20:08:27.914Z,98215.99
2023-08-07T20:11:01.168Z,98220.70
2023-08-07T20:13:33.651Z,98224.92
2023-08-07T20:16:05.996Z,98223.17
2023-08-07T20:18:37.877Z,98224.10
2023-08-07T20:21:09.604Z,98224.16
2023-08-07T20:23:41.291Z,98226.29
2023-08-07T20:26:12.928Z,98224.80
2023-08-07T20:28:44.618Z,98230.34
2023-08-07T20:31:16.664Z,98228.69
2023-08-07T20:33:48.470Z,98230.17
2023-08-07T20:36:20.135Z,98234.48
2023-08-07T20:38:51.942Z,98234.17
2023-08-07T20:41:23.658Z,98241.98
2023-08-07T20:43:55.430Z,98242.66
2023-08-07T20:46:27.175Z,98245.42
2023-08-07T20:48:58.917Z,98249.38
2023-08-07T20:51:32.365Z,98256.52
2023-08-07T20:54:04.087Z,98249.54
2023-08-07T20:56:35.782Z,98253.84
2023-08-07T20:59:07.502Z,98258.88
2023-08-07T21:01:41.060Z,98259.13
2023-08-07T21:04:13.401Z,98259.55
2023-08-07T21:06:45.388Z,98259.48
2023-08-07T21:09:17.110Z,98258.15
2023-08-07T21:11:48.798Z,98260.16
2023-08-07T21:14:20.532Z,98261.53
2023-08-07T21:16:52.442Z,98262.35
2023-08-07T21:19:24.171Z,98260.52
2023-08-07T21:21:55.935Z,98261.48
2023-08-07T21:24:27.829Z,98262.52
2023-08-07T21:26:59.557Z,98261.10
2023-08-07T21:29:31.246Z,98264.26
2023-08-07T21:32:03.145Z,98271.11
2023-08-07T21:34:34.862Z,98272.14
2023-08-07T21:37:07.411Z,98271.07
2023-08-07T21:39:39.087Z,98271.95
2023-08-07T21:42:11.507Z,98272.47
2023-08-07T21:44:43.224Z,98274.27
2023-08-07T21:47:14.921Z,98276.01
2023-08-07T21:49:46.639Z,98278.45
2023-08-07T21:52:18.398Z,98282.00
2023-08-07T21:54:50.227Z,98286.79
2023-08-07T21:57:22.021Z,98288.58
2023-08-07T21:59:53.748Z,98296.48
2023-08-07T22:02:25.513Z,98298.36
2023-08-07T22:04:57.216Z,98306.13
2023-08-07T22:07:28.911Z,98304.92
2023-08-07T22:10:00.638Z,98306.61
2023-08-07T22:12:32.347Z,98312.20
2023-08-07T22:15:04.603Z,98310.48
2023-08-07T22:17:36.392Z,98310.69
2023-08-07T22:20:11.830Z,98312.81
2023-08-07T22:22:44.340Z,98316.67
2023-08-07T22:25:16.116Z,98320.52
2023-08-07T22:27:48.887Z,98322.23
2023-08-07T22:30:21.778Z,98325.43
2023-08-07T22:32:53.591Z,98326.19
2023-08-07T22:35:25.374Z,98333.58
2023-08-07T22:37:57.034Z,98332.17
2023-08-07T22:40:28.758Z,98330.24
2023-08-07T22:43:00.470Z,98334.30
2023-08-07T22:45:32.168Z,98337.21
2023-08-07T22:48:03.910Z,98340.76
2023-08-07T22:50:35.745Z,98338.33
2023-08-07T22:53:07.534Z,98342.15
2023-08-07T22:55:39.238Z,98344.11
2023-08-07T22:58:11.013Z,98347.35
2023-08-07T23:00:42.790Z,98351.24
2023-08-07T23:03:14.557Z,98353.05
2023-08-07T23:05:46.330Z,98348.48
2023-08-07T23:08:18.031Z,98352.20
2023-08-07T23:10:49.886Z,98357.50
2023-08-07T23:13:21.641Z,98357.52
2023-08-07T23:15:53.866Z,98357.16
2023-08-07T23:18:25.648Z,98360.69
2023-08-07T23:20:57.374Z,98363.10
2023-08-07T23:23:29.050Z,98362.34
2023-08-07T23:26:00.713Z,98364.80
2023-08-07T23:28:32.502Z,98362.53
2023-08-07T23:31:04.246Z,98362.05
2023-08-07T23:33:35.954Z,98364.00
2023-08-07T23:36:07.970Z,98366.11
2023-08-07T23:38:39.638Z,98366.50
2023-08-07T23:41:11.274Z,98367.77
2023-08-07T23:43:43.037Z,98364.84
2023-08-07T23:46:14.927Z,98367.01
2023-08-07T23:48:46.704Z,98368.11
2023-08-07T23:51:18.356Z,98368.33
2023-08-07T23:53:50.661Z,98376.61
2023-08-07T23:56:22.345Z,98378.80
2023-08-07T23:58:54.031Z,98383.57
